OOCL Long Beach — VRYO4 — position and weather

sailwx.info

Track history (hours):
 
Tides and Currents Weather Stations Pressure Air Temp Water Temp Dewpoint Dewpoint Depression Visibility Wind Speed Wind Dir Waves Ship Positions

OOCL Long Beach

Last reported at 2015-Feb-24 23:30 UTC. Time now 2015-Mar-01 20:58 UTC.
Position N 22°58' E 119°56'.

Length 323 m; beam 42.8 m; draft 14.5 m.

Type: Cargo ship. MMSI: 477316000.

Date/timePositionNaut miles runAvg speedWind from/ knotsBaromVisibWave heightAir tempDewpointWater temp
2015-Feb-24 23:30N 22°58' E 119°56'1212.3
2015-Feb-24 22:33N 22°49' E 120°02'1111.5
2015-Feb-24 21:34N 22°39' E 120°10'10 9.9
2015-Feb-24 20:34N 22°33' E 120°18'1 1.3
2015-Feb-24 19:25N 22°34' E 120°18'0 0.0
2015-Feb-24 18:31N 22°34' E 120°18'0 0.0
2015-Feb-24 17:19N 22°34' E 120°18'0 0.0
2015-Feb-24 16:31N 22°34' E 120°18'0 0.0
2015-Feb-24 15:31N 22°34' E 120°18'0 0.0
2015-Feb-24 14:25N 22°34' E 120°18'0 0.0
2015-Feb-24 13:31N 22°34' E 120°18'0 0.0
2015-Feb-24 12:19N 22°34' E 120°18'0 0.0
2015-Feb-24 11:19N 22°34' E 120°18'0 0.0
2015-Feb-24 10:19N 22°34' E 120°18'0 0.0
2015-Feb-24 09:31N 22°34' E 120°18'0 0.0
2015-Feb-24 08:31N 22°34' E 120°18'0 0.0
2015-Feb-24 07:31N 22°34' E 120°18'0 0.0
2015-Feb-24 05:31N 22°34' E 120°18'0 0.0
2015-Feb-24 04:25N 22°34' E 120°18'0 0.0
2015-Feb-24 03:25N 22°34' E 120°18'0 0.0
2015-Feb-24 02:25N 22°34' E 120°18'4 4.2
2015-Feb-24 01:33N 22°32' E 120°15'1212.4
2015-Feb-24 00:33N 22°30' E 120°02'1918.8
2015-Feb-23 23:33N 22°28' E 119°42'27219.4
2015-Feb-23 09:32N 22°14' E 114°48'3615.1
2015-Feb-23 07:10N 22°34' E 114°16'0 0.0
2015-Feb-22 20:22N 22°34' E 114°16'0 0.0
2015-Feb-22 19:22N 22°34' E 114°16'0 0.0
2015-Feb-22 18:10N 22°34' E 114°16'0 0.3
2015-Feb-22 16:27N 22°34' E 114°16'18 6.2
2015-Feb-22 13:30N 22°18' E 114°27'10 9.9
2015-Feb-22 12:29N 22°09' E 114°22'11 9.3
2015-Feb-22 11:17N 22°12' E 114°10'912.0
2015-Feb-22 10:33N 22°19' E 114°05'1110.7
2015-Feb-22 09:33N 22°23' E 113°54'6 0.4
2015-Feb-21 19:04N 22°29' E 113°52'5 9.8
2015-Feb-21 18:33N 22°24' E 113°54'11 9.1
2015-Feb-21 17:22N 22°20' E 114°05'2 2.6
2015-Feb-21 16:33N 22°21' E 114°07'0 0.0
2015-Feb-21 15:18N 22°21' E 114°07'0 0.0
2015-Feb-21 14:30N 22°21' E 114°07'0 0.0
2015-Feb-21 13:33N 22°21' E 114°07'0 0.0
2015-Feb-21 12:30N 22°21' E 114°07'0 0.0
2015-Feb-21 11:33N 22°21' E 114°07'0 0.0
2015-Feb-21 10:33N 22°21' E 114°07'0 0.0
2015-Feb-21 09:30N 22°21' E 114°07'0 0.0
2015-Feb-21 08:27N 22°21' E 114°07'0 0.0
2015-Feb-21 07:33N 22°21' E 114°07'0 0.0
2015-Feb-21 06:33N 22°21' E 114°07'0 0.0
2015-Feb-21 05:30N 22°21' E 114°07'0 0.0
2015-Feb-21 04:30N 22°21' E 114°07'0 0.0
2015-Feb-21 03:33N 22°21' E 114°07'0 0.0
2015-Feb-21 02:30N 22°21' E 114°07'0 0.0
2015-Feb-21 01:33N 22°21' E 114°07'0 0.0
2015-Feb-20 23:27N 22°21' E 114°07'0 0.0
2015-Feb-20 22:30N 22°21' E 114°07'0 0.0
2015-Feb-20 21:30N 22°21' E 114°07'0 0.0
2015-Feb-20 20:27N 22°21' E 114°07'2 2.6
2015-Feb-20 19:34N 22°19' E 114°06'1110.7
2015-Feb-20 18:33N 22°10' E 114°13'1211.8
2015-Feb-20 17:33N 22°09' E 114°25'19819.7
2015-Feb-20 07:30N 23°29' E 117°42'2122.4
2015-Feb-20 06:33N 23°44' E 117°57'2323.1
2015-Feb-20 05:33N 24°01' E 118°16'1515.0
2015-Feb-20 04:31N 24°16' E 118°14'1111.3
2015-Feb-20 03:32N 24°24' E 118°06'6 4.8
2015-Feb-20 02:23N 24°27' E 118°00'0 0.0
2015-Feb-19 23:23N 24°27' E 118°00'0 0.0
2015-Feb-19 22:17N 24°27' E 118°00'0 0.0
2015-Feb-19 21:11N 24°27' E 118°00'0 0.0
2015-Feb-19 20:17N 24°27' E 118°00'0 0.0
2015-Feb-19 19:29N 24°27' E 118°00'0 0.0
2015-Feb-19 18:23N 24°27' E 118°00'0 0.0
2015-Feb-19 16:29N 24°27' E 118°00'0 0.0
2015-Feb-19 15:23N 24°27' E 118°00'0 0.0
2015-Feb-19 14:23N 24°27' E 118°00'0 0.0
2015-Feb-19 09:05N 24°27' E 118°00'0 0.0
2015-Feb-19 08:29N 24°27' E 118°00'7 7.3
2015-Feb-19 07:32N 24°23' E 118°07'1413.9
2015-Feb-19 06:33N 24°13' E 118°17'1714.5
2015-Feb-19 05:25N 24°01' E 118°30'10517.7
2015-Feb-18 23:29N 22°50' E 119°53'1819.9
2015-Feb-18 22:33N 22°37' E 120°08'1111.0
2015-Feb-18 21:33N 22°34' E 120°19'1 1.0
2015-Feb-18 20:30N 22°34' E 120°18'0 0.0
2015-Feb-18 19:30N 22°34' E 120°18'0 0.0
2015-Feb-18 18:30N 22°34' E 120°18'0 0.0
2015-Feb-18 17:30N 22°34' E 120°18'0 0.0
2015-Feb-18 16:30N 22°34' E 120°18'0 0.0
2015-Feb-18 15:30N 22°34' E 120°18'0 0.0
2015-Feb-18 14:30N 22°34' E 120°18'0 0.0
2015-Feb-18 13:30N 22°34' E 120°18'0 0.0
2015-Feb-18 12:24N 22°34' E 120°18'0 0.0
2015-Feb-18 11:30N 22°34' E 120°18'0 0.0
2015-Feb-18 10:24N 22°34' E 120°18'0 0.1
2015-Feb-18 09:30N 22°34' E 120°18'0 0.1
2015-Feb-18 08:30N 22°34' E 120°18'0 0.1
2015-Feb-18 07:30N 22°34' E 120°18'0 0.1
2015-Feb-18 06:30N 22°34' E 120°18'0 0.0
2015-Feb-18 05:30N 22°34' E 120°18'0 0.0
2015-Feb-18 04:24N 22°34' E 120°18'0 0.0
2015-Feb-18 00:30N 22°34' E 120°18'0 0.0
2015-Feb-17 23:30N 22°34' E 120°18'0 0.0
2015-Feb-17 22:24N 22°34' E 120°18'0 0.0
2015-Feb-17 21:24N 22°34' E 120°18'0 0.0
2015-Feb-17 20:24N 22°34' E 120°18'0 0.0
2015-Feb-17 19:30N 22°34' E 120°18'0 0.0
2015-Feb-17 17:30N 22°34' E 120°18'0 0.0
2015-Feb-17 16:30N 22°34' E 120°18'0 0.0
2015-Feb-17 15:30N 22°34' E 120°18'1 0.8
2015-Feb-17 14:33N 22°34' E 120°19'6 5.9
2015-Feb-17 13:33N 22°32' E 120°13'2 2.1
2015-Feb-17 12:33N 22°31' E 120°11'4 3.8
2015-Feb-17 11:33N 22°34' E 120°11'10 9.9
2015-Feb-17 10:33N 22°43' E 120°06'10 9.9
2015-Feb-17 09:33N 22°51' E 119°60'5 5.4
2015-Feb-17 08:33N 22°56' E 119°57'7 6.4
2015-Feb-17 07:32N 23°02' E 119°54'  
Track history (hours):
 
Tides and Currents Weather Stations Pressure Air Temp Water Temp Dewpoint Dewpoint Depression Visibility Wind Speed Wind Dir Waves Ship Positions

OOCL Long Beach

Last reported at 2015-Feb-24 23:30 UTC. Time now 2015-Mar-01 20:58 UTC.
Position N 22°58' E 119°56'.

Length 323 m; beam 42.8 m; draft 14.5 m.

Type: Cargo ship. MMSI: 477316000.

Date/timePositionNaut miles runAvg speedWind from/ knotsBaromVisibWave heightAir tempDewpointWater temp
2015-Feb-24 23:30N 22°58' E 119°56'1212.3
2015-Feb-24 22:33N 22°49' E 120°02'1111.5
2015-Feb-24 21:34N 22°39' E 120°10'10 9.9
2015-Feb-24 20:34N 22°33' E 120°18'1 1.3
2015-Feb-24 19:25N 22°34' E 120°18'0 0.0
2015-Feb-24 18:31N 22°34' E 120°18'0 0.0
2015-Feb-24 17:19N 22°34' E 120°18'0 0.0
2015-Feb-24 16:31N 22°34' E 120°18'0 0.0
2015-Feb-24 15:31N 22°34' E 120°18'0 0.0
2015-Feb-24 14:25N 22°34' E 120°18'0 0.0
2015-Feb-24 13:31N 22°34' E 120°18'0 0.0
2015-Feb-24 12:19N 22°34' E 120°18'0 0.0
2015-Feb-24 11:19N 22°34' E 120°18'0 0.0
2015-Feb-24 10:19N 22°34' E 120°18'0 0.0
2015-Feb-24 09:31N 22°34' E 120°18'0 0.0
2015-Feb-24 08:31N 22°34' E 120°18'0 0.0
2015-Feb-24 07:31N 22°34' E 120°18'0 0.0
2015-Feb-24 05:31N 22°34' E 120°18'0 0.0
2015-Feb-24 04:25N 22°34' E 120°18'0 0.0
2015-Feb-24 03:25N 22°34' E 120°18'0 0.0
2015-Feb-24 02:25N 22°34' E 120°18'4 4.2
2015-Feb-24 01:33N 22°32' E 120°15'1212.4
2015-Feb-24 00:33N 22°30' E 120°02'1918.8
2015-Feb-23 23:33N 22°28' E 119°42'27219.4
2015-Feb-23 09:32N 22°14' E 114°48'3615.1
2015-Feb-23 07:10N 22°34' E 114°16'0 0.0
2015-Feb-22 20:22N 22°34' E 114°16'0 0.0
2015-Feb-22 19:22N 22°34' E 114°16'0 0.0
2015-Feb-22 18:10N 22°34' E 114°16'0 0.3
2015-Feb-22 16:27N 22°34' E 114°16'18 6.2
2015-Feb-22 13:30N 22°18' E 114°27'10 9.9
2015-Feb-22 12:29N 22°09' E 114°22'11 9.3
2015-Feb-22 11:17N 22°12' E 114°10'912.0
2015-Feb-22 10:33N 22°19' E 114°05'1110.7
2015-Feb-22 09:33N 22°23' E 113°54'6 0.4
2015-Feb-21 19:04N 22°29' E 113°52'5 9.8
2015-Feb-21 18:33N 22°24' E 113°54'11 9.1
2015-Feb-21 17:22N 22°20' E 114°05'2 2.6
2015-Feb-21 16:33N 22°21' E 114°07'0 0.0
2015-Feb-21 15:18N 22°21' E 114°07'0 0.0
2015-Feb-21 14:30N 22°21' E 114°07'0 0.0
2015-Feb-21 13:33N 22°21' E 114°07'0 0.0
2015-Feb-21 12:30N 22°21' E 114°07'0 0.0
2015-Feb-21 11:33N 22°21' E 114°07'0 0.0
2015-Feb-21 10:33N 22°21' E 114°07'0 0.0
2015-Feb-21 09:30N 22°21' E 114°07'0 0.0
2015-Feb-21 08:27N 22°21' E 114°07'0 0.0
2015-Feb-21 07:33N 22°21' E 114°07'0 0.0
2015-Feb-21 06:33N 22°21' E 114°07'0 0.0
2015-Feb-21 05:30N 22°21' E 114°07'0 0.0
2015-Feb-21 04:30N 22°21' E 114°07'0 0.0
2015-Feb-21 03:33N 22°21' E 114°07'0 0.0
2015-Feb-21 02:30N 22°21' E 114°07'0 0.0
2015-Feb-21 01:33N 22°21' E 114°07'0 0.0
2015-Feb-20 23:27N 22°21' E 114°07'0 0.0
2015-Feb-20 22:30N 22°21' E 114°07'0 0.0
2015-Feb-20 21:30N 22°21' E 114°07'0 0.0
2015-Feb-20 20:27N 22°21' E 114°07'2 2.6
2015-Feb-20 19:34N 22°19' E 114°06'1110.7
2015-Feb-20 18:33N 22°10' E 114°13'1211.8
2015-Feb-20 17:33N 22°09' E 114°25'19819.7
2015-Feb-20 07:30N 23°29' E 117°42'2122.4
2015-Feb-20 06:33N 23°44' E 117°57'2323.1
2015-Feb-20 05:33N 24°01' E 118°16'1515.0
2015-Feb-20 04:31N 24°16' E 118°14'1111.3
2015-Feb-20 03:32N 24°24' E 118°06'6 4.8
2015-Feb-20 02:23N 24°27' E 118°00'0 0.0
2015-Feb-19 23:23N 24°27' E 118°00'0 0.0
2015-Feb-19 22:17N 24°27' E 118°00'0 0.0
2015-Feb-19 21:11N 24°27' E 118°00'0 0.0
2015-Feb-19 20:17N 24°27' E 118°00'0 0.0
2015-Feb-19 19:29N 24°27' E 118°00'0 0.0
2015-Feb-19 18:23N 24°27' E 118°00'0 0.0
2015-Feb-19 16:29N 24°27' E 118°00'0 0.0
2015-Feb-19 15:23N 24°27' E 118°00'0 0.0
2015-Feb-19 14:23N 24°27' E 118°00'0 0.0
2015-Feb-19 09:05N 24°27' E 118°00'0 0.0
2015-Feb-19 08:29N 24°27' E 118°00'7 7.3
2015-Feb-19 07:32N 24°23' E 118°07'1413.9
2015-Feb-19 06:33N 24°13' E 118°17'1714.5
2015-Feb-19 05:25N 24°01' E 118°30'10517.7
2015-Feb-18 23:29N 22°50' E 119°53'1819.9
2015-Feb-18 22:33N 22°37' E 120°08'1111.0
2015-Feb-18 21:33N 22°34' E 120°19'1 1.0
2015-Feb-18 20:30N 22°34' E 120°18'0 0.0
2015-Feb-18 19:30N 22°34' E 120°18'0 0.0
2015-Feb-18 18:30N 22°34' E 120°18'0 0.0
2015-Feb-18 17:30N 22°34' E 120°18'0 0.0
2015-Feb-18 16:30N 22°34' E 120°18'0 0.0
2015-Feb-18 15:30N 22°34' E 120°18'0 0.0
2015-Feb-18 14:30N 22°34' E 120°18'0 0.0
2015-Feb-18 13:30N 22°34' E 120°18'0 0.0
2015-Feb-18 12:24N 22°34' E 120°18'0 0.0
2015-Feb-18 11:30N 22°34' E 120°18'0 0.0
2015-Feb-18 10:24N 22°34' E 120°18'0 0.1
2015-Feb-18 09:30N 22°34' E 120°18'0 0.1
2015-Feb-18 08:30N 22°34' E 120°18'0 0.1
2015-Feb-18 07:30N 22°34' E 120°18'0 0.1
2015-Feb-18 06:30N 22°34' E 120°18'0 0.0
2015-Feb-18 05:30N 22°34' E 120°18'0 0.0
2015-Feb-18 04:24N 22°34' E 120°18'0 0.0
2015-Feb-18 00:30N 22°34' E 120°18'0 0.0
2015-Feb-17 23:30N 22°34' E 120°18'0 0.0
2015-Feb-17 22:24N 22°34' E 120°18'0 0.0
2015-Feb-17 21:24N 22°34' E 120°18'0 0.0
2015-Feb-17 20:24N 22°34' E 120°18'0 0.0
2015-Feb-17 19:30N 22°34' E 120°18'0 0.0
2015-Feb-17 17:30N 22°34' E 120°18'0 0.0
2015-Feb-17 16:30N 22°34' E 120°18'0 0.0
2015-Feb-17 15:30N 22°34' E 120°18'1 0.8
2015-Feb-17 14:33N 22°34' E 120°19'6 5.9
2015-Feb-17 13:33N 22°32' E 120°13'2 2.1
2015-Feb-17 12:33N 22°31' E 120°11'4 3.8
2015-Feb-17 11:33N 22°34' E 120°11'10 9.9
2015-Feb-17 10:33N 22°43' E 120°06'10 9.9
2015-Feb-17 09:33N 22°51' E 119°60'5 5.4
2015-Feb-17 08:33N 22°56' E 119°57'7 6.4
2015-Feb-17 07:32N 23°02' E 119°54'  

Dump ship's entire track history